sensor_id;sensor_type;location;lat;lon;timestamp;temperature;humidity
71098;SHT35;58754;47.622;-2.986;2023-05-23T00:02:12;21.18;55.76
71098;SHT35;58754;47.622;-2.986;2023-05-23T00:04:39;21.21;55.80
71098;SHT35;58754;47.622;-2.986;2023-05-23T00:07:05;21.20;55.74
71098;SHT35;58754;47.622;-2.986;2023-05-23T00:09:31;21.20;55.77
71098;SHT35;58754;47.622;-2.986;2023-05-23T00:11:57;21.17;55.73
71098;SHT35;58754;47.622;-2.986;2023-05-23T00:14:22;21.15;55.72
71098;SHT35;58754;47.622;-2.986;2023-05-23T00:16:48;21.18;55.74
71098;SHT35;58754;47.622;-2.986;2023-05-23T00:19:14;21.21;55.69
71098;SHT35;58754;47.622;-2.986;2023-05-23T00:21:46;21.18;55.73
71098;SHT35;58754;47.622;-2.986;2023-05-23T00:24:15;21.17;55.73
71098;SHT35;58754;47.622;-2.986;2023-05-23T00:26:45;21.17;55.72
71098;SHT35;58754;47.622;-2.986;2023-05-23T00:29:11;21.18;55.70
71098;SHT35;58754;47.622;-2.986;2023-05-23T00:31:41;21.17;55.72
71098;SHT35;58754;47.622;-2.986;2023-05-23T00:34:14;21.15;55.72
71098;SHT35;58754;47.622;-2.986;2023-05-23T00:36:42;21.18;55.70
71098;SHT35;58754;47.622;-2.986;2023-05-23T00:39:08;21.17;55.69
71098;SHT35;58754;47.622;-2.986;2023-05-23T00:41:41;21.18;55.70
71098;SHT35;58754;47.622;-2.986;2023-05-23T00:44:07;21.17;55.72
71098;SHT35;58754;47.622;-2.986;2023-05-23T00:46:34;21.15;55.67
71098;SHT35;58754;47.622;-2.986;2023-05-23T00:49:00;21.18;55.66
71098;SHT35;58754;47.622;-2.986;2023-05-23T00:51:27;21.17;55.66
71098;SHT35;58754;47.622;-2.986;2023-05-23T00:53:53;21.17;55.67
71098;SHT35;58754;47.622;-2.986;2023-05-23T00:56:19;21.15;55.63
71098;SHT35;58754;47.622;-2.986;2023-05-23T00:58:46;21.18;55.64
71098;SHT35;58754;47.622;-2.986;2023-05-23T01:01:13;21.17;55.61
71098;SHT35;58754;47.622;-2.986;2023-05-23T01:03:39;21.17;55.64
71098;SHT35;58754;47.622;-2.986;2023-05-23T01:06:05;21.17;55.62
71098;SHT35;58754;47.622;-2.986;2023-05-23T01:08:31;21.15;55.56
71098;SHT35;58754;47.622;-2.986;2023-05-23T01:11:01;21.15;55.60
71098;SHT35;58754;47.622;-2.986;2023-05-23T01:13:42;21.15;55.60
71098;SHT35;58754;47.622;-2.986;2023-05-23T01:19:50;21.17;55.56
71098;SHT35;58754;47.622;-2.986;2023-05-23T01:21:54;21.14;55.58
71098;SHT35;58754;47.622;-2.986;2023-05-23T01:27:14;21.12;55.60
71098;SHT35;58754;47.622;-2.986;2023-05-23T01:29:46;21.12;55.59
71098;SHT35;58754;47.622;-2.986;2023-05-23T01:32:15;21.14;55.56
71098;SHT35;58754;47.622;-2.986;2023-05-23T01:34:42;21.14;55.57
71098;SHT35;58754;47.622;-2.986;2023-05-23T01:37:11;21.12;55.58
71098;SHT35;58754;47.622;-2.986;2023-05-23T01:39:39;21.12;55.57
71098;SHT35;58754;47.622;-2.986;2023-05-23T01:42:05;21.12;55.53
71098;SHT35;58754;47.622;-2.986;2023-05-23T01:44:35;21.12;55.51
71098;SHT35;58754;47.622;-2.986;2023-05-23T01:47:02;21.12;55.53
71098;SHT35;58754;47.622;-2.986;2023-05-23T01:49:29;21.12;55.56
71098;SHT35;58754;47.622;-2.986;2023-05-23T01:51:57;21.11;55.54
71098;SHT35;58754;47.622;-2.986;2023-05-23T01:54:23;21.12;55.53
71098;SHT35;58754;47.622;-2.986;2023-05-23T01:56:49;21.14;55.50
71098;SHT35;58754;47.622;-2.986;2023-05-23T01:59:15;21.11;55.50
71098;SHT35;58754;47.622;-2.986;2023-05-23T02:01:41;21.11;55.50
71098;SHT35;58754;47.622;-2.986;2023-05-23T02:04:08;21.12;55.48
71098;SHT35;58754;47.622;-2.986;2023-05-23T02:06:34;21.12;55.47
71098;SHT35;58754;47.622;-2.986;2023-05-23T02:08:59;21.11;55.49
71098;SHT35;58754;47.622;-2.986;2023-05-23T02:11:25;21.11;55.46
71098;SHT35;58754;47.622;-2.986;2023-05-23T02:13:51;21.11;55.45
71098;SHT35;58754;47.622;-2.986;2023-05-23T02:16:17;21.11;55.45
71098;SHT35;58754;47.622;-2.986;2023-05-23T02:18:43;21.11;55.42
71098;SHT35;58754;47.622;-2.986;2023-05-23T02:21:10;21.10;55.41
71098;SHT35;58754;47.622;-2.986;2023-05-23T02:23:36;21.10;55.41
71098;SHT35;58754;47.622;-2.986;2023-05-23T02:26:01;21.11;55.42
71098;SHT35;58754;47.622;-2.986;2023-05-23T02:28:27;21.11;55.46
71098;SHT35;58754;47.622;-2.986;2023-05-23T02:30:53;21.10;55.41
71098;SHT35;58754;47.622;-2.986;2023-05-23T02:33:20;21.10;55.45
71098;SHT35;58754;47.622;-2.986;2023-05-23T02:35:46;21.08;55.38
71098;SHT35;58754;47.622;-2.986;2023-05-23T02:38:12;21.08;55.38
71098;SHT35;58754;47.622;-2.986;2023-05-23T02:40:37;21.10;55.38
71098;SHT35;58754;47.622;-2.986;2023-05-23T02:43:03;21.08;55.43
71098;SHT35;58754;47.622;-2.986;2023-05-23T02:45:29;21.10;55.39
71098;SHT35;58754;47.622;-2.986;2023-05-23T02:47:55;21.07;55.40
71098;SHT35;58754;47.622;-2.986;2023-05-23T02:50:20;21.08;55.40
71098;SHT35;58754;47.622;-2.986;2023-05-23T02:52:46;21.07;55.37
71098;SHT35;58754;47.622;-2.986;2023-05-23T02:55:12;21.04;55.39
71098;SHT35;58754;47.622;-2.986;2023-05-23T02:57:38;21.08;55.38
71098;SHT35;58754;47.622;-2.986;2023-05-23T03:00:04;21.08;55.41
71098;SHT35;58754;47.622;-2.986;2023-05-23T03:02:30;21.06;55.38
71098;SHT35;58754;47.622;-2.986;2023-05-23T03:04:56;21.06;55.37
71098;SHT35;58754;47.622;-2.986;2023-05-23T03:07:22;21.04;55.36
71098;SHT35;58754;47.622;-2.986;2023-05-23T03:09:48;21.06;55.44
71098;SHT35;58754;47.622;-2.986;2023-05-23T03:12:13;21.06;55.38
71098;SHT35;58754;47.622;-2.986;2023-05-23T03:14:39;21.04;55.39
71098;SHT35;58754;47.622;-2.986;2023-05-23T03:17:05;21.03;55.35
71098;SHT35;58754;47.622;-2.986;2023-05-23T03:19:31;21.06;55.34
71098;SHT35;58754;47.622;-2.986;2023-05-23T03:21:57;21.04;55.35
71098;SHT35;58754;47.622;-2.986;2023-05-23T03:24:22;21.03;55.35
71098;SHT35;58754;47.622;-2.986;2023-05-23T03:26:48;21.04;55.34
71098;SHT35;58754;47.622;-2.986;2023-05-23T03:29:14;21.04;55.34
71098;SHT35;58754;47.622;-2.986;2023-05-23T03:31:40;21.04;55.38
71098;SHT35;58754;47.622;-2.986;2023-05-23T03:34:05;21.06;55.36
71098;SHT35;58754;47.622;-2.986;2023-05-23T03:36:31;21.04;55.35
71098;SHT35;58754;47.622;-2.986;2023-05-23T03:39:00;21.03;55.33
71098;SHT35;58754;47.622;-2.986;2023-05-23T03:41:26;21.03;55.39
71098;SHT35;58754;47.622;-2.986;2023-05-23T03:43:51;21.01;55.36
71098;SHT35;58754;47.622;-2.986;2023-05-23T03:46:17;21.00;55.37
71098;SHT35;58754;47.622;-2.986;2023-05-23T03:48:43;21.01;55.35
71098;SHT35;58754;47.622;-2.986;2023-05-23T03:51:09;21.03;55.36
71098;SHT35;58754;47.622;-2.986;2023-05-23T03:53:35;21.01;55.37
71098;SHT35;58754;47.622;-2.986;2023-05-23T03:56:02;21.00;55.35
71098;SHT35;58754;47.622;-2.986;2023-05-23T03:58:27;21.00;55.35
71098;SHT35;58754;47.622;-2.986;2023-05-23T04:00:53;21.01;55.32
71098;SHT35;58754;47.622;-2.986;2023-05-23T04:03:19;20.98;55.38
71098;SHT35;58754;47.622;-2.986;2023-05-23T04:05:45;21.00;55.36
71098;SHT35;58754;47.622;-2.986;2023-05-23T04:08:11;20.98;55.37
71098;SHT35;58754;47.622;-2.986;2023-05-23T04:10:37;20.97;55.37
71098;SHT35;58754;47.622;-2.986;2023-05-23T04:13:03;21.00;55.36
71098;SHT35;58754;47.622;-2.986;2023-05-23T04:15:29;20.98;55.37
71098;SHT35;58754;47.622;-2.986;2023-05-23T04:17:54;20.98;55.33
71098;SHT35;58754;47.622;-2.986;2023-05-23T04:20:21;20.98;55.38
71098;SHT35;58754;47.622;-2.986;2023-05-23T04:22:46;21.00;55.38
71098;SHT35;58754;47.622;-2.986;2023-05-23T04:25:12;20.98;55.32
71098;SHT35;58754;47.622;-2.986;2023-05-23T04:27:38;20.96;55.36
71098;SHT35;58754;47.622;-2.986;2023-05-23T04:30:06;20.97;55.38
71098;SHT35;58754;47.622;-2.986;2023-05-23T04:32:33;20.98;55.37
71098;SHT35;58754;47.622;-2.986;2023-05-23T04:34:59;20.97;55.34
71098;SHT35;58754;47.622;-2.986;2023-05-23T04:37:27;20.97;55.32
71098;SHT35;58754;47.622;-2.986;2023-05-23T04:39:53;20.97;55.35
71098;SHT35;58754;47.622;-2.986;2023-05-23T04:42:19;20.98;55.36
71098;SHT35;58754;47.622;-2.986;2023-05-23T04:44:49;20.98;55.35
71098;SHT35;58754;47.622;-2.986;2023-05-23T04:47:16;20.96;55.38
71098;SHT35;58754;47.622;-2.986;2023-05-23T04:49:42;20.97;55.35
71098;SHT35;58754;47.622;-2.986;2023-05-23T04:52:08;20.97;55.42
71098;SHT35;58754;47.622;-2.986;2023-05-23T04:54:34;20.96;55.40
71098;SHT35;58754;47.622;-2.986;2023-05-23T04:57:00;20.97;55.40
71098;SHT35;58754;47.622;-2.986;2023-05-23T04:59:26;20.93;55.39
71098;SHT35;58754;47.622;-2.986;2023-05-23T05:01:52;20.94;55.40
71098;SHT35;58754;47.622;-2.986;2023-05-23T05:04:18;20.96;55.39
71098;SHT35;58754;47.622;-2.986;2023-05-23T05:06:44;20.93;55.41
71098;SHT35;58754;47.622;-2.986;2023-05-23T05:09:10;20.94;55.42
71098;SHT35;58754;47.622;-2.986;2023-05-23T05:11:35;20.93;55.41
71098;SHT35;58754;47.622;-2.986;2023-05-23T05:14:02;20.93;55.42
71098;SHT35;58754;47.622;-2.986;2023-05-23T05:16:28;20.93;55.44
71098;SHT35;58754;47.622;-2.986;2023-05-23T05:18:54;20.96;55.44
71098;SHT35;58754;47.622;-2.986;2023-05-23T05:21:20;20.93;55.42
71098;SHT35;58754;47.622;-2.986;2023-05-23T05:23:46;20.91;55.39
71098;SHT35;58754;47.622;-2.986;2023-05-23T05:26:12;20.93;55.39
71098;SHT35;58754;47.622;-2.986;2023-05-23T05:28:37;20.93;55.47
71098;SHT35;58754;47.622;-2.986;2023-05-23T05:31:03;20.93;55.41
71098;SHT35;58754;47.622;-2.986;2023-05-23T05:33:29;20.93;55.39
71098;SHT35;58754;47.622;-2.986;2023-05-23T05:36:05;20.91;55.45
71098;SHT35;58754;47.622;-2.986;2023-05-23T05:38:31;20.90;55.42
71098;SHT35;58754;47.622;-2.986;2023-05-23T05:40:57;20.94;55.45
71098;SHT35;58754;47.622;-2.986;2023-05-23T05:43:24;20.91;55.47
71098;SHT35;58754;47.622;-2.986;2023-05-23T05:45:50;20.91;55.44
71098;SHT35;58754;47.622;-2.986;2023-05-23T05:48:16;20.91;55.46
71098;SHT35;58754;47.622;-2.986;2023-05-23T05:50:42;20.90;55.47
71098;SHT35;58754;47.622;-2.986;2023-05-23T05:53:12;20.91;55.45
71098;SHT35;58754;47.622;-2.986;2023-05-23T05:55:38;20.91;55.48
71098;SHT35;58754;47.622;-2.986;2023-05-23T05:58:03;20.90;55.47
71098;SHT35;58754;47.622;-2.986;2023-05-23T06:00:29;20.91;55.50
71098;SHT35;58754;47.622;-2.986;2023-05-23T06:02:55;20.91;55.52
71098;SHT35;58754;47.622;-2.986;2023-05-23T06:05:22;20.87;55.47
71098;SHT35;58754;47.622;-2.986;2023-05-23T06:07:48;20.93;55.50
71098;SHT35;58754;47.622;-2.986;2023-05-23T06:10:15;20.91;55.52
71098;SHT35;58754;47.622;-2.986;2023-05-23T06:12:41;20.90;55.47
71098;SHT35;58754;47.622;-2.986;2023-05-23T06:15:07;20.91;55.55
71098;SHT35;58754;47.622;-2.986;2023-05-23T06:17:34;20.90;55.54
71098;SHT35;58754;47.622;-2.986;2023-05-23T06:20:05;20.90;55.54
71098;SHT35;58754;47.622;-2.986;2023-05-23T06:22:32;20.89;55.55
71098;SHT35;58754;47.622;-2.986;2023-05-23T06:24:58;20.90;55.54
71098;SHT35;58754;47.622;-2.986;2023-05-23T06:27:24;20.87;55.57
71098;SHT35;58754;47.622;-2.986;2023-05-23T06:29:49;20.89;55.57
71098;SHT35;58754;47.622;-2.986;2023-05-23T06:32:15;20.90;55.56
71098;SHT35;58754;47.622;-2.986;2023-05-23T06:34:41;20.89;55.58
71098;SHT35;58754;47.622;-2.986;2023-05-23T06:37:07;20.89;55.57
71098;SHT35;58754;47.622;-2.986;2023-05-23T06:39:32;20.90;55.60
71098;SHT35;58754;47.622;-2.986;2023-05-23T06:41:58;20.90;55.59
71098;SHT35;58754;47.622;-2.986;2023-05-23T06:44:25;20.90;55.61
71098;SHT35;58754;47.622;-2.986;2023-05-23T06:46:52;20.91;55.60
71098;SHT35;58754;47.622;-2.986;2023-05-23T06:49:23;20.91;55.59
71098;SHT35;58754;47.622;-2.986;2023-05-23T06:51:50;20.89;55.62
71098;SHT35;58754;47.622;-2.986;2023-05-23T06:54:16;20.91;55.65
71098;SHT35;58754;47.622;-2.986;2023-05-23T06:56:42;20.87;55.57
71098;SHT35;58754;47.622;-2.986;2023-05-23T06:59:08;20.90;55.62
71098;SHT35;58754;47.622;-2.986;2023-05-23T07:01:34;20.86;55.63
71098;SHT35;58754;47.622;-2.986;2023-05-23T07:04:00;20.84;55.60
71098;SHT35;58754;47.622;-2.986;2023-05-23T07:06:26;20.87;55.66
71098;SHT35;58754;47.622;-2.986;2023-05-23T07:08:55;20.87;55.67
71098;SHT35;58754;47.622;-2.986;2023-05-23T07:11:21;20.89;55.69
71098;SHT35;58754;47.622;-2.986;2023-05-23T07:13:47;20.89;55.67
71098;SHT35;58754;47.622;-2.986;2023-05-23T07:16:13;20.89;55.68
71098;SHT35;58754;47.622;-2.986;2023-05-23T07:18:39;20.89;55.67
71098;SHT35;58754;47.622;-2.986;2023-05-23T07:21:05;20.89;55.65
71098;SHT35;58754;47.622;-2.986;2023-05-23T07:23:34;20.87;55.65
71098;SHT35;58754;47.622;-2.986;2023-05-23T07:26:00;20.89;55.68
71098;SHT35;58754;47.622;-2.986;2023-05-23T07:28:27;20.86;55.67
71098;SHT35;58754;47.622;-2.986;2023-05-23T07:30:54;20.86;55.69
71098;SHT35;58754;47.622;-2.986;2023-05-23T07:33:22;20.87;55.71
71098;SHT35;58754;47.622;-2.986;2023-05-23T07:35:48;20.89;55.73
71098;SHT35;58754;47.622;-2.986;2023-05-23T07:38:15;20.89;55.72
71098;SHT35;58754;47.622;-2.986;2023-05-23T07:40:41;20.89;55.68
71098;SHT35;58754;47.622;-2.986;2023-05-23T07:43:06;20.87;55.68
71098;SHT35;58754;47.622;-2.986;2023-05-23T07:45:32;20.86;55.70
71098;SHT35;58754;47.622;-2.986;2023-05-23T07:47:58;20.87;55.70
71098;SHT35;58754;47.622;-2.986;2023-05-23T07:50:24;20.89;55.74
71098;SHT35;58754;47.622;-2.986;2023-05-23T07:52:52;20.84;55.70
71098;SHT35;58754;47.622;-2.986;2023-05-23T07:55:18;20.87;55.71
71098;SHT35;58754;47.622;-2.986;2023-05-23T07:57:44;20.89;55.73
71098;SHT35;58754;47.622;-2.986;2023-05-23T08:00:10;20.89;55.73
71098;SHT35;58754;47.622;-2.986;2023-05-23T08:02:36;20.87;55.74
71098;SHT35;58754;47.622;-2.986;2023-05-23T08:05:02;20.87;55.72
71098;SHT35;58754;47.622;-2.986;2023-05-23T08:07:28;20.89;55.73
71098;SHT35;58754;47.622;-2.986;2023-05-23T08:09:53;20.87;55.76
71098;SHT35;58754;47.622;-2.986;2023-05-23T08:12:19;20.87;55.77
71098;SHT35;58754;47.622;-2.986;2023-05-23T08:14:45;20.84;55.72
71098;SHT35;58754;47.622;-2.986;2023-05-23T08:17:12;20.86;55.69
71098;SHT35;58754;47.622;-2.986;2023-05-23T08:19:37;20.89;55.73
71098;SHT35;58754;47.622;-2.986;2023-05-23T08:22:03;20.89;55.73
71098;SHT35;58754;47.622;-2.986;2023-05-23T08:24:29;20.90;55.78
71098;SHT35;58754;47.622;-2.986;2023-05-23T08:26:55;20.90;55.76
71098;SHT35;58754;47.622;-2.986;2023-05-23T08:29:21;20.87;55.72
71098;SHT35;58754;47.622;-2.986;2023-05-23T08:31:47;20.89;55.75
71098;SHT35;58754;47.622;-2.986;2023-05-23T08:34:13;20.90;55.72
71098;SHT35;58754;47.622;-2.986;2023-05-23T08:36:39;20.87;55.76
71098;SHT35;58754;47.622;-2.986;2023-05-23T08:39:06;20.89;55.73
71098;SHT35;58754;47.622;-2.986;2023-05-23T08:41:33;20.86;55.74
71098;SHT35;58754;47.622;-2.986;2023-05-23T08:43:59;20.90;55.77
71098;SHT35;58754;47.622;-2.986;2023-05-23T08:46:25;20.90;55.77
71098;SHT35;58754;47.622;-2.986;2023-05-23T08:48:55;20.89;55.77
71098;SHT35;58754;47.622;-2.986;2023-05-23T08:51:26;20.90;55.73
71098;SHT35;58754;47.622;-2.986;2023-05-23T08:53:52;20.90;55.74
71098;SHT35;58754;47.622;-2.986;2023-05-23T08:56:21;20.89;55.78
71098;SHT35;58754;47.622;-2.986;2023-05-23T08:58:52;20.89;55.78
71098;SHT35;58754;47.622;-2.986;2023-05-23T09:01:19;20.89;55.76
71098;SHT35;58754;47.622;-2.986;2023-05-23T09:03:47;20.87;55.78
71098;SHT35;58754;47.622;-2.986;2023-05-23T09:06:15;20.89;55.77
71098;SHT35;58754;47.622;-2.986;2023-05-23T09:08:43;20.89;55.73
71098;SHT35;58754;47.622;-2.986;2023-05-23T09:11:10;20.90;55.78
71098;SHT35;58754;47.622;-2.986;2023-05-23T09:13:39;20.90;55.78
71098;SHT35;58754;47.622;-2.986;2023-05-23T09:16:06;20.90;55.77
71098;SHT35;58754;47.622;-2.986;2023-05-23T09:18:37;20.90;55.73
71098;SHT35;58754;47.622;-2.986;2023-05-23T09:21:04;20.90;55.73
71098;SHT35;58754;47.622;-2.986;2023-05-23T09:23:34;20.89;55.75
71098;SHT35;58754;47.622;-2.986;2023-05-23T09:26:05;20.91;55.74
71098;SHT35;58754;47.622;-2.986;2023-05-23T09:28:35;20.93;55.77
71098;SHT35;58754;47.622;-2.986;2023-05-23T09:31:05;20.93;55.76
71098;SHT35;58754;47.622;-2.986;2023-05-23T09:33:38;20.93;55.74
71098;SHT35;58754;47.622;-2.986;2023-05-23T09:36:05;20.93;55.73
71098;SHT35;58754;47.622;-2.986;2023-05-23T09:38:42;20.93;55.72
71098;SHT35;58754;47.622;-2.986;2023-05-23T09:41:08;20.97;55.71
71098;SHT35;58754;47.622;-2.986;2023-05-23T09:43:49;20.97;55.72
71098;SHT35;58754;47.622;-2.986;2023-05-23T09:46:16;20.96;55.68
71098;SHT35;58754;47.622;-2.986;2023-05-23T09:48:49;20.94;55.73
71098;SHT35;58754;47.622;-2.986;2023-05-23T09:51:19;20.97;55.73
71098;SHT35;58754;47.622;-2.986;2023-05-23T09:53:48;20.96;55.73
71098;SHT35;58754;47.622;-2.986;2023-05-23T09:56:18;20.97;55.73
71098;SHT35;58754;47.622;-2.986;2023-05-23T09:58:47;20.94;55.75
71098;SHT35;58754;47.622;-2.986;2023-05-23T10:01:13;20.96;55.74
71098;SHT35;58754;47.622;-2.986;2023-05-23T10:03:50;20.94;55.78
71098;SHT35;58754;47.622;-2.986;2023-05-23T10:06:30;20.97;55.79
71098;SHT35;58754;47.622;-2.986;2023-05-23T10:09:04;20.97;55.83
71098;SHT35;58754;47.622;-2.986;2023-05-23T10:14:05;20.97;55.79
71098;SHT35;58754;47.622;-2.986;2023-05-23T10:22:09;20.97;55.92
71098;SHT35;58754;47.622;-2.986;2023-05-23T10:24:35;20.96;55.89
71098;SHT35;58754;47.622;-2.986;2023-05-23T10:27:02;20.98;55.93
71098;SHT35;58754;47.622;-2.986;2023-05-23T10:29:29;20.97;55.92
71098;SHT35;58754;47.622;-2.986;2023-05-23T10:31:56;20.98;55.92
71098;SHT35;58754;47.622;-2.986;2023-05-23T10:37:22;21.00;55.99
71098;SHT35;58754;47.622;-2.986;2023-05-23T10:45:43;20.97;56.08
71098;SHT35;58754;47.622;-2.986;2023-05-23T10:48:32;20.97;56.07
71098;SHT35;58754;47.622;-2.986;2023-05-23T10:51:09;21.00;56.06
71098;SHT35;58754;47.622;-2.986;2023-05-23T10:53:39;20.97;56.08
71098;SHT35;58754;47.622;-2.986;2023-05-23T10:56:10;20.98;56.12
71098;SHT35;58754;47.622;-2.986;2023-05-23T10:58:38;20.98;56.23
71098;SHT35;58754;47.622;-2.986;2023-05-23T11:01:05;21.00;56.22
71098;SHT35;58754;47.622;-2.986;2023-05-23T11:06:37;21.01;56.23
71098;SHT35;58754;47.622;-2.986;2023-05-23T11:09:15;21.03;56.27
71098;SHT35;58754;47.622;-2.986;2023-05-23T11:14:13;21.04;56.24
71098;SHT35;58754;47.622;-2.986;2023-05-23T11:16:41;21.04;56.30
71098;SHT35;58754;47.622;-2.986;2023-05-23T11:21:48;21.03;56.28
71098;SHT35;58754;47.622;-2.986;2023-05-23T11:24:14;21.04;56.33
71098;SHT35;58754;47.622;-2.986;2023-05-23T11:26:54;21.06;56.32
71098;SHT35;58754;47.622;-2.986;2023-05-23T11:29:27;21.04;56.41
71098;SHT35;58754;47.622;-2.986;2023-05-23T11:31:56;21.01;56.43
71098;SHT35;58754;47.622;-2.986;2023-05-23T11:34:24;21.06;56.41
71098;SHT35;58754;47.622;-2.986;2023-05-23T11:36:54;21.07;56.52
71098;SHT35;58754;47.622;-2.986;2023-05-23T11:39:20;21.06;56.50
71098;SHT35;58754;47.622;-2.986;2023-05-23T11:41:59;21.06;56.46
71098;SHT35;58754;47.622;-2.986;2023-05-23T11:44:25;21.06;56.56
71098;SHT35;58754;47.622;-2.986;2023-05-23T11:47:01;21.07;56.49
71098;SHT35;58754;47.622;-2.986;2023-05-23T11:49:31;21.07;56.50
71098;SHT35;58754;47.622;-2.986;2023-05-23T11:52:01;21.08;56.53
71098;SHT35;58754;47.622;-2.986;2023-05-23T11:54:27;21.08;56.53
71098;SHT35;58754;47.622;-2.986;2023-05-23T11:56:56;21.08;56.50
71098;SHT35;58754;47.622;-2.986;2023-05-23T11:59:24;21.10;56.58
71098;SHT35;58754;47.622;-2.986;2023-05-23T12:01:51;21.10;56.59
71098;SHT35;58754;47.622;-2.986;2023-05-23T12:04:17;21.10;56.62
71098;SHT35;58754;47.622;-2.986;2023-05-23T12:06:46;21.11;56.56
71098;SHT35;58754;47.622;-2.986;2023-05-23T12:09:13;21.08;56.59
71098;SHT35;58754;47.622;-2.986;2023-05-23T12:11:41;21.08;56.61
71098;SHT35;58754;47.622;-2.986;2023-05-23T12:14:07;21.10;56.63
71098;SHT35;58754;47.622;-2.986;2023-05-23T12:16:35;21.08;56.64
71098;SHT35;58754;47.622;-2.986;2023-05-23T12:19:02;21.10;56.70
71098;SHT35;58754;47.622;-2.986;2023-05-23T12:21:42;21.11;56.64
71098;SHT35;58754;47.622;-2.986;2023-05-23T12:24:19;21.12;56.67
71098;SHT35;58754;47.622;-2.986;2023-05-23T12:26:50;21.14;56.67
71098;SHT35;58754;47.622;-2.986;2023-05-23T12:29:36;21.10;56.65
71098;SHT35;58754;47.622;-2.986;2023-05-23T12:32:05;21.14;56.64
71098;SHT35;58754;47.622;-2.986;2023-05-23T12:34:32;21.12;56.76
71098;SHT35;58754;47.622;-2.986;2023-05-23T12:37:00;21.11;56.70
71098;SHT35;58754;47.622;-2.986;2023-05-23T12:39:28;21.12;56.80
71098;SHT35;58754;47.622;-2.986;2023-05-23T12:42:05;21.15;56.72
71098;SHT35;58754;47.622;-2.986;2023-05-23T12:44:32;21.14;56.77
71098;SHT35;58754;47.622;-2.986;2023-05-23T12:46:57;21.14;56.75
71098;SHT35;58754;47.622;-2.986;2023-05-23T12:49:23;21.14;56.78
71098;SHT35;58754;47.622;-2.986;2023-05-23T12:51:49;21.15;56.79
71098;SHT35;58754;47.622;-2.986;2023-05-23T12:54:16;21.14;56.82
71098;SHT35;58754;47.622;-2.986;2023-05-23T12:56:42;21.12;56.79
71098;SHT35;58754;47.622;-2.986;2023-05-23T12:59:07;21.14;56.79
71098;SHT35;58754;47.622;-2.986;2023-05-23T13:01:34;21.15;56.92
71098;SHT35;58754;47.622;-2.986;2023-05-23T13:04:00;21.14;56.83
71098;SHT35;58754;47.622;-2.986;2023-05-23T13:06:26;21.17;56.90
71098;SHT35;58754;47.622;-2.986;2023-05-23T13:08:54;21.15;56.91
71098;SHT35;58754;47.622;-2.986;2023-05-23T13:11:20;21.17;56.89
71098;SHT35;58754;47.622;-2.986;2023-05-23T13:13:50;21.15;56.91
71098;SHT35;58754;47.622;-2.986;2023-05-23T13:16:16;21.18;56.89
71098;SHT35;58754;47.622;-2.986;2023-05-23T13:18:42;21.15;56.95
71098;SHT35;58754;47.622;-2.986;2023-05-23T13:21:08;21.18;56.94
71098;SHT35;58754;47.622;-2.986;2023-05-23T13:23:34;21.18;56.94
71098;SHT35;58754;47.622;-2.986;2023-05-23T13:26:02;21.18;56.94
71098;SHT35;58754;47.622;-2.986;2023-05-23T13:28:28;21.17;56.98
71098;SHT35;58754;47.622;-2.986;2023-05-23T13:30:54;21.18;57.02
71098;SHT35;58754;47.622;-2.986;2023-05-23T13:33:20;21.21;57.02
71098;SHT35;58754;47.622;-2.986;2023-05-23T13:35:48;21.20;57.01
71098;SHT35;58754;47.622;-2.986;2023-05-23T13:38:17;21.20;57.05
71098;SHT35;58754;47.622;-2.986;2023-05-23T13:40:44;21.18;57.11
71098;SHT35;58754;47.622;-2.986;2023-05-23T13:43:09;21.21;57.06
71098;SHT35;58754;47.622;-2.986;2023-05-23T13:45:35;21.18;57.15
71098;SHT35;58754;47.622;-2.986;2023-05-23T13:48:01;21.24;57.10
71098;SHT35;58754;47.622;-2.986;2023-05-23T13:50:27;21.21;57.13
71098;SHT35;58754;47.622;-2.986;2023-05-23T13:52:53;21.23;57.10
71098;SHT35;58754;47.622;-2.986;2023-05-23T13:55:19;21.24;57.08
71098;SHT35;58754;47.622;-2.986;2023-05-23T13:57:45;21.23;57.12
71098;SHT35;58754;47.622;-2.986;2023-05-23T14:00:12;21.20;57.15
71098;SHT35;58754;47.622;-2.986;2023-05-23T14:02:38;21.25;57.18
71098;SHT35;58754;47.622;-2.986;2023-05-23T14:05:04;21.24;57.22
71098;SHT35;58754;47.622;-2.986;2023-05-23T14:07:31;21.23;57.18
71098;SHT35;58754;47.622;-2.986;2023-05-23T14:09:57;21.24;57.21
71098;SHT35;58754;47.622;-2.986;2023-05-23T14:12:24;21.24;57.22
71098;SHT35;58754;47.622;-2.986;2023-05-23T14:14:50;21.25;57.26
71098;SHT35;58754;47.622;-2.986;2023-05-23T14:17:16;21.21;57.30
71098;SHT35;58754;47.622;-2.986;2023-05-23T14:19:43;21.25;57.24
71098;SHT35;58754;47.622;-2.986;2023-05-23T14:22:10;21.25;57.28
71098;SHT35;58754;47.622;-2.986;2023-05-23T14:24:35;21.28;57.26
71098;SHT35;58754;47.622;-2.986;2023-05-23T14:27:03;21.27;57.33
71098;SHT35;58754;47.622;-2.986;2023-05-23T14:29:29;21.25;57.28
71098;SHT35;58754;47.622;-2.986;2023-05-23T14:31:55;21.27;57.29
71098;SHT35;58754;47.622;-2.986;2023-05-23T14:34:21;21.28;57.35
71098;SHT35;58754;47.622;-2.986;2023-05-23T14:36:46;21.27;57.35
71098;SHT35;58754;47.622;-2.986;2023-05-23T14:39:12;21.28;57.33
71098;SHT35;58754;47.622;-2.986;2023-05-23T14:41:38;21.28;57.33
71098;SHT35;58754;47.622;-2.986;2023-05-23T14:44:04;21.30;57.34
71098;SHT35;58754;47.622;-2.986;2023-05-23T14:46:30;21.30;57.33
71098;SHT35;58754;47.622;-2.986;2023-05-23T14:48:56;21.28;57.33
71098;SHT35;58754;47.622;-2.986;2023-05-23T14:51:21;21.30;57.34
71098;SHT35;58754;47.622;-2.986;2023-05-23T14:53:47;21.30;57.34
71098;SHT35;58754;47.622;-2.986;2023-05-23T14:56:13;21.31;57.34
71098;SHT35;58754;47.622;-2.986;2023-05-23T14:58:39;21.28;57.34
71098;SHT35;58754;47.622;-2.986;2023-05-23T15:01:11;21.32;57.31
71098;SHT35;58754;47.622;-2.986;2023-05-23T15:03:37;21.31;57.35
71098;SHT35;58754;47.622;-2.986;2023-05-23T15:06:03;21.32;57.32
71098;SHT35;58754;47.622;-2.986;2023-05-23T15:08:30;21.31;57.33
71098;SHT35;58754;47.622;-2.986;2023-05-23T15:10:56;21.34;57.32
71098;SHT35;58754;47.622;-2.986;2023-05-23T15:13:22;21.32;57.29
71098;SHT35;58754;47.622;-2.986;2023-05-23T15:15:48;21.35;57.28
71098;SHT35;58754;47.622;-2.986;2023-05-23T15:18:14;21.32;57.23
71098;SHT35;58754;47.622;-2.986;2023-05-23T15:20:39;21.34;57.22
71098;SHT35;58754;47.622;-2.986;2023-05-23T15:23:05;21.31;57.23
71098;SHT35;58754;47.622;-2.986;2023-05-23T15:25:32;21.34;57.24
71098;SHT35;58754;47.622;-2.986;2023-05-23T15:27:57;21.35;57.17
71098;SHT35;58754;47.622;-2.986;2023-05-23T15:30:23;21.35;57.19
71098;SHT35;58754;47.622;-2.986;2023-05-23T15:32:49;21.34;57.19
71098;SHT35;58754;47.622;-2.986;2023-05-23T15:35:16;21.34;57.14
71098;SHT35;58754;47.622;-2.986;2023-05-23T15:37:42;21.37;57.12
71098;SHT35;58754;47.622;-2.986;2023-05-23T15:40:10;21.38;57.08
71098;SHT35;58754;47.622;-2.986;2023-05-23T15:42:36;21.37;57.07
71098;SHT35;58754;47.622;-2.986;2023-05-23T15:45:02;21.35;57.05
71098;SHT35;58754;47.622;-2.986;2023-05-23T15:47:28;21.37;57.07